sensor_id;sensor_type;location;lat;lon;timestamp;P1;durP1;ratioP1;P2;durP2;ratioP2
29854;SDS011;16733;48.738;9.106;2023-08-06T00:00:09;1.92;;;1.65;;
29854;SDS011;16733;48.738;9.106;2023-08-06T00:02:35;2.83;;;1.45;;
29854;SDS011;16733;48.738;9.106;2023-08-06T00:05:01;1.75;;;1.40;;
29854;SDS011;16733;48.738;9.106;2023-08-06T00:07:28;3.50;;;1.85;;
29854;SDS011;16733;48.738;9.106;2023-08-06T00:09:54;2.83;;;1.65;;
29854;SDS011;16733;48.738;9.106;2023-08-06T00:12:20;3.47;;;1.70;;
29854;SDS011;16733;48.738;9.106;2023-08-06T00:14:49;2.88;;;1.40;;
29854;SDS011;16733;48.738;9.106;2023-08-06T00:17:15;3.35;;;1.80;;
29854;SDS011;16733;48.738;9.106;2023-08-06T00:19:41;1.73;;;1.55;;
29854;SDS011;16733;48.738;9.106;2023-08-06T00:22:07;4.15;;;1.67;;
29854;SDS011;16733;48.738;9.106;2023-08-06T00:24:34;2.17;;;1.50;;
29854;SDS011;16733;48.738;9.106;2023-08-06T00:27:00;2.83;;;1.52;;
29854;SDS011;16733;48.738;9.106;2023-08-06T00:29:26;3.65;;;1.60;;
29854;SDS011;16733;48.738;9.106;2023-08-06T00:31:52;1.55;;;1.35;;
29854;SDS011;16733;48.738;9.106;2023-08-06T00:34:18;3.42;;;1.60;;
29854;SDS011;16733;48.738;9.106;2023-08-06T00:36:44;2.45;;;1.55;;
29854;SDS011;16733;48.738;9.106;2023-08-06T00:39:10;2.38;;;1.88;;
29854;SDS011;16733;48.738;9.106;2023-08-06T00:41:36;1.70;;;1.30;;
29854;SDS011;16733;48.738;9.106;2023-08-06T00:44:02;1.60;;;1.50;;
29854;SDS011;16733;48.738;9.106;2023-08-06T00:46:28;1.80;;;1.52;;
29854;SDS011;16733;48.738;9.106;2023-08-06T00:48:54;3.53;;;1.85;;
29854;SDS011;16733;48.738;9.106;2023-08-06T00:51:21;1.63;;;1.30;;
29854;SDS011;16733;48.738;9.106;2023-08-06T00:53:48;4.03;;;1.75;;
29854;SDS011;16733;48.738;9.106;2023-08-06T00:56:15;1.80;;;1.50;;
29854;SDS011;16733;48.738;9.106;2023-08-06T00:58:41;3.72;;;1.50;;
29854;SDS011;16733;48.738;9.106;2023-08-06T01:01:07;2.58;;;1.60;;
29854;SDS011;16733;48.738;9.106;2023-08-06T01:03:33;2.40;;;1.20;;
29854;SDS011;16733;48.738;9.106;2023-08-06T01:06:00;2.67;;;1.85;;
29854;SDS011;16733;48.738;9.106;2023-08-06T01:16:11;2.67;;;1.50;;
29854;SDS011;16733;48.738;9.106;2023-08-06T01:18:37;1.67;;;1.17;;
29854;SDS011;16733;48.738;9.106;2023-08-06T01:21:04;2.70;;;1.40;;
29854;SDS011;16733;48.738;9.106;2023-08-06T01:23:30;1.10;;;1.00;;
29854;SDS011;16733;48.738;9.106;2023-08-06T01:26:10;1.40;;;0.93;;
29854;SDS011;16733;48.738;9.106;2023-08-06T01:31:07;2.15;;;1.60;;
29854;SDS011;16733;48.738;9.106;2023-08-06T01:33:35;2.03;;;1.33;;
29854;SDS011;16733;48.738;9.106;2023-08-06T01:36:03;5.10;;;1.80;;
29854;SDS011;16733;48.738;9.106;2023-08-06T01:38:29;2.83;;;1.90;;
29854;SDS011;16733;48.738;9.106;2023-08-06T01:40:55;1.95;;;1.20;;
29854;SDS011;16733;48.738;9.106;2023-08-06T01:43:21;1.65;;;1.10;;
29854;SDS011;16733;48.738;9.106;2023-08-06T01:45:47;2.80;;;1.20;;
29854;SDS011;16733;48.738;9.106;2023-08-06T01:48:13;1.52;;;0.95;;
29854;SDS011;16733;48.738;9.106;2023-08-06T01:50:39;2.63;;;1.27;;
29854;SDS011;16733;48.738;9.106;2023-08-06T01:53:05;2.67;;;1.20;;
29854;SDS011;16733;48.738;9.106;2023-08-06T01:55:31;2.08;;;1.15;;
29854;SDS011;16733;48.738;9.106;2023-08-06T01:57:57;1.85;;;1.13;;
29854;SDS011;16733;48.738;9.106;2023-08-06T02:00:23;1.45;;;1.10;;
29854;SDS011;16733;48.738;9.106;2023-08-06T02:02:49;4.60;;;1.60;;
29854;SDS011;16733;48.738;9.106;2023-08-06T02:05:15;2.42;;;0.90;;
29854;SDS011;16733;48.738;9.106;2023-08-06T02:07:41;2.63;;;1.55;;
29854;SDS011;16733;48.738;9.106;2023-08-06T02:10:07;1.45;;;1.02;;
29854;SDS011;16733;48.738;9.106;2023-08-06T02:12:34;2.67;;;1.48;;
29854;SDS011;16733;48.738;9.106;2023-08-06T02:15:00;3.05;;;1.90;;
29854;SDS011;16733;48.738;9.106;2023-08-06T02:17:26;1.85;;;1.20;;
29854;SDS011;16733;48.738;9.106;2023-08-06T02:19:52;2.25;;;1.15;;
29854;SDS011;16733;48.738;9.106;2023-08-06T02:22:18;2.50;;;1.15;;
29854;SDS011;16733;48.738;9.106;2023-08-06T02:24:44;1.52;;;1.40;;
29854;SDS011;16733;48.738;9.106;2023-08-06T02:27:10;2.92;;;1.08;;
29854;SDS011;16733;48.738;9.106;2023-08-06T02:29:36;3.10;;;1.90;;
29854;SDS011;16733;48.738;9.106;2023-08-06T02:32:02;6.97;;;1.23;;
29854;SDS011;16733;48.738;9.106;2023-08-06T02:34:28;2.97;;;1.10;;
29854;SDS011;16733;48.738;9.106;2023-08-06T02:36:54;2.25;;;1.10;;
29854;SDS011;16733;48.738;9.106;2023-08-06T02:39:20;2.92;;;1.30;;
29854;SDS011;16733;48.738;9.106;2023-08-06T02:41:46;1.42;;;1.27;;
29854;SDS011;16733;48.738;9.106;2023-08-06T02:44:12;2.50;;;1.33;;
29854;SDS011;16733;48.738;9.106;2023-08-06T02:46:38;1.90;;;1.20;;
29854;SDS011;16733;48.738;9.106;2023-08-06T02:49:04;2.97;;;1.35;;
29854;SDS011;16733;48.738;9.106;2023-08-06T02:51:31;4.55;;;1.30;;
29854;SDS011;16733;48.738;9.106;2023-08-06T02:53:57;1.45;;;1.00;;
29854;SDS011;16733;48.738;9.106;2023-08-06T02:56:23;0.82;;;0.82;;
29854;SDS011;16733;48.738;9.106;2023-08-06T02:58:50;1.38;;;1.10;;
29854;SDS011;16733;48.738;9.106;2023-08-06T03:01:16;1.50;;;1.30;;
29854;SDS011;16733;48.738;9.106;2023-08-06T03:03:42;2.22;;;1.38;;
29854;SDS011;16733;48.738;9.106;2023-08-06T03:06:08;1.52;;;1.00;;
29854;SDS011;16733;48.738;9.106;2023-08-06T03:08:34;1.60;;;1.00;;
29854;SDS011;16733;48.738;9.106;2023-08-06T03:11:00;1.60;;;1.10;;
29854;SDS011;16733;48.738;9.106;2023-08-06T03:13:26;0.88;;;0.70;;
29854;SDS011;16733;48.738;9.106;2023-08-06T03:15:56;4.22;;;1.70;;
29854;SDS011;16733;48.738;9.106;2023-08-06T03:18:23;2.50;;;1.27;;
29854;SDS011;16733;48.738;9.106;2023-08-06T03:20:49;2.13;;;1.10;;
29854;SDS011;16733;48.738;9.106;2023-08-06T03:23:15;2.28;;;1.00;;
29854;SDS011;16733;48.738;9.106;2023-08-06T03:25:41;1.90;;;1.08;;
29854;SDS011;16733;48.738;9.106;2023-08-06T03:28:07;4.00;;;1.13;;
29854;SDS011;16733;48.738;9.106;2023-08-06T03:30:33;1.65;;;1.15;;
29854;SDS011;16733;48.738;9.106;2023-08-06T03:32:59;0.82;;;0.68;;
29854;SDS011;16733;48.738;9.106;2023-08-06T03:35:25;2.92;;;1.00;;
29854;SDS011;16733;48.738;9.106;2023-08-06T03:37:51;1.13;;;0.82;;
29854;SDS011;16733;48.738;9.106;2023-08-06T03:40:17;4.22;;;1.23;;
29854;SDS011;16733;48.738;9.106;2023-08-06T03:42:43;5.50;;;0.80;;
29854;SDS011;16733;48.738;9.106;2023-08-06T03:45:09;1.55;;;0.90;;
29854;SDS011;16733;48.738;9.106;2023-08-06T03:47:35;5.15;;;1.20;;
29854;SDS011;16733;48.738;9.106;2023-08-06T03:50:01;3.35;;;1.05;;
29854;SDS011;16733;48.738;9.106;2023-08-06T03:52:27;4.60;;;1.00;;
29854;SDS011;16733;48.738;9.106;2023-08-06T03:54:53;5.10;;;1.38;;
29854;SDS011;16733;48.738;9.106;2023-08-06T03:57:19;2.83;;;1.15;;
29854;SDS011;16733;48.738;9.106;2023-08-06T03:59:45;5.45;;;0.98;;
29854;SDS011;16733;48.738;9.106;2023-08-06T04:02:11;3.05;;;0.93;;
29854;SDS011;16733;48.738;9.106;2023-08-06T04:04:37;4.10;;;1.00;;
29854;SDS011;16733;48.738;9.106;2023-08-06T04:07:03;1.88;;;1.00;;
29854;SDS011;16733;48.738;9.106;2023-08-06T04:09:29;1.38;;;0.93;;
29854;SDS011;16733;48.738;9.106;2023-08-06T04:11:55;2.13;;;0.77;;
29854;SDS011;16733;48.738;9.106;2023-08-06T04:14:26;2.05;;;0.90;;
29854;SDS011;16733;48.738;9.106;2023-08-06T04:16:52;1.92;;;0.93;;
29854;SDS011;16733;48.738;9.106;2023-08-06T04:19:18;5.80;;;0.77;;
29854;SDS011;16733;48.738;9.106;2023-08-06T04:21:44;1.27;;;0.75;;
29854;SDS011;16733;48.738;9.106;2023-08-06T04:24:10;2.20;;;0.90;;
29854;SDS011;16733;48.738;9.106;2023-08-06T04:26:36;2.20;;;1.05;;
29854;SDS011;16733;48.738;9.106;2023-08-06T04:29:02;2.40;;;1.33;;
29854;SDS011;16733;48.738;9.106;2023-08-06T04:31:28;1.05;;;0.90;;
29854;SDS011;16733;48.738;9.106;2023-08-06T04:33:54;1.25;;;0.70;;
29854;SDS011;16733;48.738;9.106;2023-08-06T04:36:20;2.25;;;0.73;;
29854;SDS011;16733;48.738;9.106;2023-08-06T04:38:46;3.97;;;0.75;;
29854;SDS011;16733;48.738;9.106;2023-08-06T04:41:13;2.50;;;1.05;;
29854;SDS011;16733;48.738;9.106;2023-08-06T04:43:39;2.25;;;0.60;;
29854;SDS011;16733;48.738;9.106;2023-08-06T04:46:05;1.63;;;0.77;;
29854;SDS011;16733;48.738;9.106;2023-08-06T04:48:31;3.80;;;1.30;;
29854;SDS011;16733;48.738;9.106;2023-08-06T04:50:57;6.35;;;0.88;;
29854;SDS011;16733;48.738;9.106;2023-08-06T04:53:23;2.10;;;0.80;;
29854;SDS011;16733;48.738;9.106;2023-08-06T04:55:49;1.92;;;0.80;;
29854;SDS011;16733;48.738;9.106;2023-08-06T04:58:15;2.15;;;0.60;;
29854;SDS011;16733;48.738;9.106;2023-08-06T05:00:41;2.03;;;0.70;;
29854;SDS011;16733;48.738;9.106;2023-08-06T05:03:08;5.35;;;1.38;;
29854;SDS011;16733;48.738;9.106;2023-08-06T05:05:34;0.98;;;0.77;;
29854;SDS011;16733;48.738;9.106;2023-08-06T05:08:00;1.00;;;0.60;;
29854;SDS011;16733;48.738;9.106;2023-08-06T05:10:26;1.02;;;0.60;;
29854;SDS011;16733;48.738;9.106;2023-08-06T05:12:52;1.80;;;0.73;;
29854;SDS011;16733;48.738;9.106;2023-08-06T05:15:18;2.58;;;0.70;;
29854;SDS011;16733;48.738;9.106;2023-08-06T05:17:44;3.03;;;0.90;;
29854;SDS011;16733;48.738;9.106;2023-08-06T05:20:10;3.63;;;0.70;;
29854;SDS011;16733;48.738;9.106;2023-08-06T05:22:36;0.90;;;0.60;;
29854;SDS011;16733;48.738;9.106;2023-08-06T05:25:02;0.82;;;0.52;;
29854;SDS011;16733;48.738;9.106;2023-08-06T05:27:28;0.63;;;0.50;;
29854;SDS011;16733;48.738;9.106;2023-08-06T05:29:55;2.90;;;0.57;;
29854;SDS011;16733;48.738;9.106;2023-08-06T05:32:24;4.45;;;0.77;;
29854;SDS011;16733;48.738;9.106;2023-08-06T05:34:50;0.93;;;0.40;;
29854;SDS011;16733;48.738;9.106;2023-08-06T05:37:16;0.65;;;0.40;;
29854;SDS011;16733;48.738;9.106;2023-08-06T05:39:42;2.42;;;0.57;;
29854;SDS011;16733;48.738;9.106;2023-08-06T05:42:08;0.93;;;0.35;;
29854;SDS011;16733;48.738;9.106;2023-08-06T05:44:34;2.17;;;0.22;;
29854;SDS011;16733;48.738;9.106;2023-08-06T05:47:00;0.73;;;0.47;;
29854;SDS011;16733;48.738;9.106;2023-08-06T05:49:26;1.33;;;0.30;;
29854;SDS011;16733;48.738;9.106;2023-08-06T05:51:52;2.22;;;0.75;;
29854;SDS011;16733;48.738;9.106;2023-08-06T05:54:18;3.00;;;1.50;;
29854;SDS011;16733;48.738;9.106;2023-08-06T05:56:44;3.45;;;1.50;;
29854;SDS011;16733;48.738;9.106;2023-08-06T05:59:10;1.55;;;0.73;;
29854;SDS011;16733;48.738;9.106;2023-08-06T06:01:36;2.53;;;0.85;;
29854;SDS011;16733;48.738;9.106;2023-08-06T06:04:02;1.33;;;0.73;;
29854;SDS011;16733;48.738;9.106;2023-08-06T06:06:29;0.60;;;0.50;;
29854;SDS011;16733;48.738;9.106;2023-08-06T06:08:54;1.77;;;0.30;;
29854;SDS011;16733;48.738;9.106;2023-08-06T06:11:20;0.50;;;0.47;;
29854;SDS011;16733;48.738;9.106;2023-08-06T06:13:47;2.95;;;0.60;;
29854;SDS011;16733;48.738;9.106;2023-08-06T06:16:13;0.47;;;0.30;;
29854;SDS011;16733;48.738;9.106;2023-08-06T06:18:39;3.10;;;0.85;;
29854;SDS011;16733;48.738;9.106;2023-08-06T06:21:05;1.08;;;0.40;;
29854;SDS011;16733;48.738;9.106;2023-08-06T06:23:31;3.10;;;0.50;;
29854;SDS011;16733;48.738;9.106;2023-08-06T06:25:57;0.10;;;0.10;;
29854;SDS011;16733;48.738;9.106;2023-08-06T06:28:23;1.92;;;0.55;;
29854;SDS011;16733;48.738;9.106;2023-08-06T06:30:51;3.40;;;0.55;;
29854;SDS011;16733;48.738;9.106;2023-08-06T06:33:17;0.13;;;0.13;;
29854;SDS011;16733;48.738;9.106;2023-08-06T06:35:43;1.05;;;0.40;;
29854;SDS011;16733;48.738;9.106;2023-08-06T06:38:09;0.77;;;0.50;;
29854;SDS011;16733;48.738;9.106;2023-08-06T06:40:35;3.05;;;0.57;;
29854;SDS011;16733;48.738;9.106;2023-08-06T06:43:01;1.15;;;0.50;;
29854;SDS011;16733;48.738;9.106;2023-08-06T06:45:27;0.57;;;0.30;;
29854;SDS011;16733;48.738;9.106;2023-08-06T06:47:53;0.40;;;0.30;;
29854;SDS011;16733;48.738;9.106;2023-08-06T06:50:19;0.73;;;0.40;;
29854;SDS011;16733;48.738;9.106;2023-08-06T06:52:45;3.35;;;0.32;;
29854;SDS011;16733;48.738;9.106;2023-08-06T06:55:11;0.65;;;0.40;;
29854;SDS011;16733;48.738;9.106;2023-08-06T06:57:37;0.20;;;0.20;;
29854;SDS011;16733;48.738;9.106;2023-08-06T07:00:03;0.22;;;0.20;;
29854;SDS011;16733;48.738;9.106;2023-08-06T07:02:29;1.10;;;0.40;;
29854;SDS011;16733;48.738;9.106;2023-08-06T07:04:55;2.40;;;0.30;;
29854;SDS011;16733;48.738;9.106;2023-08-06T07:07:21;0.50;;;0.40;;
29854;SDS011;16733;48.738;9.106;2023-08-06T07:09:47;0.30;;;0.20;;
29854;SDS011;16733;48.738;9.106;2023-08-06T07:12:13;0.60;;;0.30;;
29854;SDS011;16733;48.738;9.106;2023-08-06T07:14:39;1.35;;;0.90;;
29854;SDS011;16733;48.738;9.106;2023-08-06T07:17:05;0.75;;;0.43;;
29854;SDS011;16733;48.738;9.106;2023-08-06T07:19:31;1.50;;;0.88;;
29854;SDS011;16733;48.738;9.106;2023-08-06T07:21:57;1.52;;;0.40;;
29854;SDS011;16733;48.738;9.106;2023-08-06T07:24:23;1.70;;;0.52;;
29854;SDS011;16733;48.738;9.106;2023-08-06T07:26:49;0.63;;;0.30;;
29854;SDS011;16733;48.738;9.106;2023-08-06T07:29:15;0.30;;;0.30;;
29854;SDS011;16733;48.738;9.106;2023-08-06T07:31:46;0.30;;;0.30;;
29854;SDS011;16733;48.738;9.106;2023-08-06T07:34:12;1.27;;;0.40;;
29854;SDS011;16733;48.738;9.106;2023-08-06T07:36:38;1.33;;;0.30;;
29854;SDS011;16733;48.738;9.106;2023-08-06T07:39:04;1.17;;;0.50;;
29854;SDS011;16733;48.738;9.106;2023-08-06T07:41:31;0.70;;;0.30;;
29854;SDS011;16733;48.738;9.106;2023-08-06T07:43:57;0.32;;;0.30;;
29854;SDS011;16733;48.738;9.106;2023-08-06T07:46:26;0.25;;;0.22;;
29854;SDS011;16733;48.738;9.106;2023-08-06T07:48:52;0.20;;;0.20;;
29854;SDS011;16733;48.738;9.106;2023-08-06T07:51:18;0.10;;;0.10;;
29854;SDS011;16733;48.738;9.106;2023-08-06T07:53:44;0.20;;;0.20;;
29854;SDS011;16733;48.738;9.106;2023-08-06T07:56:10;0.22;;;0.20;;
29854;SDS011;16733;48.738;9.106;2023-08-06T07:58:36;0.20;;;0.20;;
29854;SDS011;16733;48.738;9.106;2023-08-06T08:01:02;0.55;;;0.20;;
29854;SDS011;16733;48.738;9.106;2023-08-06T08:03:28;1.20;;;0.80;;
29854;SDS011;16733;48.738;9.106;2023-08-06T08:05:55;0.52;;;0.43;;
29854;SDS011;16733;48.738;9.106;2023-08-06T08:08:22;0.20;;;0.20;;
29854;SDS011;16733;48.738;9.106;2023-08-06T08:10:48;0.22;;;0.22;;
29854;SDS011;16733;48.738;9.106;2023-08-06T08:13:14;0.30;;;0.20;;
29854;SDS011;16733;48.738;9.106;2023-08-06T08:15:40;0.40;;;0.20;;
29854;SDS011;16733;48.738;9.106;2023-08-06T08:18:07;0.40;;;0.20;;
29854;SDS011;16733;48.738;9.106;2023-08-06T08:20:33;1.00;;;0.20;;
29854;SDS011;16733;48.738;9.106;2023-08-06T08:23:00;0.10;;;0.10;;
29854;SDS011;16733;48.738;9.106;2023-08-06T08:25:26;0.88;;;0.20;;
29854;SDS011;16733;48.738;9.106;2023-08-06T08:27:53;0.45;;;0.45;;
29854;SDS011;16733;48.738;9.106;2023-08-06T08:30:19;0.15;;;0.15;;
29854;SDS011;16733;48.738;9.106;2023-08-06T08:32:45;0.17;;;0.17;;
29854;SDS011;16733;48.738;9.106;2023-08-06T08:35:11;0.10;;;0.10;;
29854;SDS011;16733;48.738;9.106;2023-08-06T08:37:40;0.52;;;0.20;;
29854;SDS011;16733;48.738;9.106;2023-08-06T08:40:07;0.25;;;0.20;;
29854;SDS011;16733;48.738;9.106;2023-08-06T08:42:33;0.40;;;0.30;;
29854;SDS011;16733;48.738;9.106;2023-08-06T08:45:00;1.00;;;0.73;;
29854;SDS011;16733;48.738;9.106;2023-08-06T08:47:26;0.30;;;0.30;;
29854;SDS011;16733;48.738;9.106;2023-08-06T08:49:52;0.22;;;0.22;;
29854;SDS011;16733;48.738;9.106;2023-08-06T08:52:21;0.17;;;0.17;;
29854;SDS011;16733;48.738;9.106;2023-08-06T08:54:48;0.30;;;0.30;;
29854;SDS011;16733;48.738;9.106;2023-08-06T08:57:18;0.10;;;0.10;;
29854;SDS011;16733;48.738;9.106;2023-08-06T08:59:44;0.35;;;0.20;;
29854;SDS011;16733;48.738;9.106;2023-08-06T09:02:13;0.20;;;0.20;;
29854;SDS011;16733;48.738;9.106;2023-08-06T09:04:40;0.20;;;0.20;;
29854;SDS011;16733;48.738;9.106;2023-08-06T09:07:08;0.10;;;0.10;;
29854;SDS011;16733;48.738;9.106;2023-08-06T09:09:35;0.10;;;0.10;;
29854;SDS011;16733;48.738;9.106;2023-08-06T09:12:06;0.13;;;0.13;;
29854;SDS011;16733;48.738;9.106;2023-08-06T09:14:35;0.93;;;0.20;;
29854;SDS011;16733;48.738;9.106;2023-08-06T09:17:03;0.10;;;0.10;;
29854;SDS011;16733;48.738;9.106;2023-08-06T09:19:31;0.57;;;0.10;;
29854;SDS011;16733;48.738;9.106;2023-08-06T09:21:57;0.38;;;0.17;;
29854;SDS011;16733;48.738;9.106;2023-08-06T09:24:23;0.95;;;0.30;;
29854;SDS011;16733;48.738;9.106;2023-08-06T09:26:49;0.20;;;0.20;;
29854;SDS011;16733;48.738;9.106;2023-08-06T09:29:15;0.10;;;0.10;;
29854;SDS011;16733;48.738;9.106;2023-08-06T09:31:47;0.20;;;0.15;;
29854;SDS011;16733;48.738;9.106;2023-08-06T09:34:17;0.20;;;0.20;;
29854;SDS011;16733;48.738;9.106;2023-08-06T09:36:47;1.10;;;0.20;;
29854;SDS011;16733;48.738;9.106;2023-08-06T09:39:14;1.30;;;0.20;;
29854;SDS011;16733;48.738;9.106;2023-08-06T09:41:40;0.93;;;0.30;;
29854;SDS011;16733;48.738;9.106;2023-08-06T09:44:40;3.47;;;0.20;;
29854;SDS011;16733;48.738;9.106;2023-08-06T09:49:40;2.35;;;0.10;;
29854;SDS011;16733;48.738;9.106;2023-08-06T09:52:11;0.10;;;0.10;;
29854;SDS011;16733;48.738;9.106;2023-08-06T09:54:37;1.88;;;0.20;;
29854;SDS011;16733;48.738;9.106;2023-08-06T09:57:04;0.50;;;0.30;;
29854;SDS011;16733;48.738;9.106;2023-08-06T09:59:30;0.28;;;0.28;;
29854;SDS011;16733;48.738;9.106;2023-08-06T10:01:56;0.20;;;0.10;;
29854;SDS011;16733;48.738;9.106;2023-08-06T10:04:23;0.10;;;0.10;;
29854;SDS011;16733;48.738;9.106;2023-08-06T10:06:49;0.10;;;0.10;;
29854;SDS011;16733;48.738;9.106;2023-08-06T10:09:16;0.75;;;0.28;;
29854;SDS011;16733;48.738;9.106;2023-08-06T10:11:43;2.28;;;0.10;;
29854;SDS011;16733;48.738;9.106;2023-08-06T10:14:14;0.55;;;0.30;;
29854;SDS011;16733;48.738;9.106;2023-08-06T10:16:41;0.50;;;0.30;;
29854;SDS011;16733;48.738;9.106;2023-08-06T10:19:10;0.28;;;0.10;;
29854;SDS011;16733;48.738;9.106;2023-08-06T10:21:40;0.40;;;0.40;;
29854;SDS011;16733;48.738;9.106;2023-08-06T10:24:07;0.40;;;0.20;;
29854;SDS011;16733;48.738;9.106;2023-08-06T10:26:36;0.80;;;0.30;;
29854;SDS011;16733;48.738;9.106;2023-08-06T10:29:34;2.30;;;0.10;;
29854;SDS011;16733;48.738;9.106;2023-08-06T10:31:55;0.20;;;0.20;;
29854;SDS011;16733;48.738;9.106;2023-08-06T10:34:21;2.17;;;0.25;;
29854;SDS011;16733;48.738;9.106;2023-08-06T10:36:47;0.10;;;0.10;;
29854;SDS011;16733;48.738;9.106;2023-08-06T10:39:13;2.53;;;0.22;;
29854;SDS011;16733;48.738;9.106;2023-08-06T10:41:40;0.50;;;0.20;;
29854;SDS011;16733;48.738;9.106;2023-08-06T10:44:08;1.30;;;0.20;;
29854;SDS011;16733;48.738;9.106;2023-08-06T10:46:35;0.40;;;0.20;;
29854;SDS011;16733;48.738;9.106;2023-08-06T10:49:01;0.32;;;0.20;;
29854;SDS011;16733;48.738;9.106;2023-08-06T10:51:27;0.22;;;0.22;;
29854;SDS011;16733;48.738;9.106;2023-08-06T10:53:53;1.20;;;0.40;;
29854;SDS011;16733;48.738;9.106;2023-08-06T10:56:21;0.20;;;0.20;;
29854;SDS011;16733;48.738;9.106;2023-08-06T10:58:47;0.10;;;0.10;;
29854;SDS011;16733;48.738;9.106;2023-08-06T11:01:14;0.10;;;0.10;;
29854;SDS011;16733;48.738;9.106;2023-08-06T11:03:41;0.70;;;0.20;;
29854;SDS011;16733;48.738;9.106;2023-08-06T11:06:07;0.10;;;0.10;;
29854;SDS011;16733;48.738;9.106;2023-08-06T11:08:35;0.38;;;0.30;;
29854;SDS011;16733;48.738;9.106;2023-08-06T11:11:14;0.10;;;0.10;;
29854;SDS011;16733;48.738;9.106;2023-08-06T11:13:40;0.17;;;0.17;;
29854;SDS011;16733;48.738;9.106;2023-08-06T11:16:06;0.13;;;0.13;;
29854;SDS011;16733;48.738;9.106;2023-08-06T11:18:33;0.20;;;0.20;;
29854;SDS011;16733;48.738;9.106;2023-08-06T11:20:59;0.10;;;0.10;;
29854;SDS011;16733;48.738;9.106;2023-08-06T11:23:28;0.13;;;0.13;;
29854;SDS011;16733;48.738;9.106;2023-08-06T11:25:55;0.15;;;0.15;;
29854;SDS011;16733;48.738;9.106;2023-08-06T11:28:21;0.32;;;0.32;;
29854;SDS011;16733;48.738;9.106;2023-08-06T11:30:47;0.30;;;0.20;;
29854;SDS011;16733;48.738;9.106;2023-08-06T11:33:14;0.22;;;0.22;;
29854;SDS011;16733;48.738;9.106;2023-08-06T11:35:40;0.55;;;0.40;;
29854;SDS011;16733;48.738;9.106;2023-08-06T11:38:06;0.60;;;0.28;;
29854;SDS011;16733;48.738;9.106;2023-08-06T11:40:35;3.95;;;0.45;;
29854;SDS011;16733;48.738;9.106;2023-08-06T11:43:01;0.30;;;0.30;;
29854;SDS011;16733;48.738;9.106;2023-08-06T11:45:27;0.32;;;0.30;;
29854;SDS011;16733;48.738;9.106;2023-08-06T11:47:53;1.52;;;0.40;;
29854;SDS011;16733;48.738;9.106;2023-08-06T11:50:25;0.95;;;0.30;;
29854;SDS011;16733;48.738;9.106;2023-08-06T11:52:56;0.52;;;0.50;;
29854;SDS011;16733;48.738;9.106;2023-08-06T11:55:23;0.30;;;0.30;;
29854;SDS011;16733;48.738;9.106;2023-08-06T11:57:49;1.27;;;0.82;;
29854;SDS011;16733;48.738;9.106;2023-08-06T12:00:15;1.52;;;0.80;;
29854;SDS011;16733;48.738;9.106;2023-08-06T12:02:47;4.10;;;0.70;;
29854;SDS011;16733;48.738;9.106;2023-08-06T12:05:18;0.85;;;0.50;;
29854;SDS011;16733;48.738;9.106;2023-08-06T12:07:49;1.63;;;0.70;;
29854;SDS011;16733;48.738;9.106;2023-08-06T12:10:16;0.60;;;0.45;;
29854;SDS011;16733;48.738;9.106;2023-08-06T12:12:44;1.55;;;0.40;;
29854;SDS011;16733;48.738;9.106;2023-08-06T12:15:10;0.40;;;0.40;;
29854;SDS011;16733;48.738;9.106;2023-08-06T12:17:37;0.93;;;0.50;;
29854;SDS011;16733;48.738;9.106;2023-08-06T12:20:03;1.20;;;0.50;;
29854;SDS011;16733;48.738;9.106;2023-08-06T12:22:29;1.75;;;0.65;;
29854;SDS011;16733;48.738;9.106;2023-08-06T12:25:00;0.55;;;0.38;;
29854;SDS011;16733;48.738;9.106;2023-08-06T12:27:27;0.38;;;0.38;;
29854;SDS011;16733;48.738;9.106;2023-08-06T12:29:53;0.95;;;0.50;;
29854;SDS011;16733;48.738;9.106;2023-08-06T12:32:19;1.77;;;0.52;;
29854;SDS011;16733;48.738;9.106;2023-08-06T12:34:45;0.60;;;0.47;;
29854;SDS011;16733;48.738;9.106;2023-08-06T12:37:11;0.60;;;0.43;;
29854;SDS011;16733;48.738;9.106;2023-08-06T12:39:37;0.70;;;0.50;;
29854;SDS011;16733;48.738;9.106;2023-08-06T12:42:04;1.90;;;0.63;;
29854;SDS011;16733;48.738;9.106;2023-08-06T12:44:30;1.15;;;0.47;;
29854;SDS011;16733;48.738;9.106;2023-08-06T12:46:57;0.50;;;0.50;;
29854;SDS011;16733;48.738;9.106;2023-08-06T12:49:23;0.38;;;0.38;;
29854;SDS011;16733;48.738;9.106;2023-08-06T12:51:49;4.22;;;0.43;;
29854;SDS011;16733;48.738;9.106;2023-08-06T12:54:19;1.35;;;0.40;;
29854;SDS011;16733;48.738;9.106;2023-08-06T12:56:45;1.75;;;0.50;;
29854;SDS011;16733;48.738;9.106;2023-08-06T12:59:13;1.13;;;0.35;;
29854;SDS011;16733;48.738;9.106;2023-08-06T13:01:39;2.55;;;0.40;;
29854;SDS011;16733;48.738;9.106;2023-08-06T13:04:06;0.80;;;0.57;;
29854;SDS011;16733;48.738;9.106;2023-08-06T13:06:32;0.80;;;0.60;;
29854;SDS011;16733;48.738;9.106;2023-08-06T13:09:08;0.82;;;0.40;;
29854;SDS011;16733;48.738;9.106;2023-08-06T13:11:35;1.15;;;0.70;;
29854;SDS011;16733;48.738;9.106;2023-08-06T13:14:08;4.82;;;0.68;;
29854;SDS011;16733;48.738;9.106;2023-08-06T13:16:34;2.00;;;0.85;;
29854;SDS011;16733;48.738;9.106;2023-08-06T13:19:01;1.13;;;0.60;;
29854;SDS011;16733;48.738;9.106;2023-08-06T13:21:30;0.40;;;0.40;;
29854;SDS011;16733;48.738;9.106;2023-08-06T13:23:57;0.95;;;0.50;;
29854;SDS011;16733;48.738;9.106;2023-08-06T13:26:22;1.27;;;0.50;;
29854;SDS011;16733;48.738;9.106;2023-08-06T13:28:48;2.20;;;0.80;;
29854;SDS011;16733;48.738;9.106;2023-08-06T13:31:15;0.85;;;0.40;;
29854;SDS011;16733;48.738;9.106;2023-08-06T13:33:42;0.50;;;0.20;;
29854;SDS011;16733;48.738;9.106;2023-08-06T13:36:08;6.30;;;0.80;;
29854;SDS011;16733;48.738;9.106;2023-08-06T13:38:34;0.50;;;0.50;;
29854;SDS011;16733;48.738;9.106;2023-08-06T13:41:00;0.30;;;0.28;;
29854;SDS011;16733;48.738;9.106;2023-08-06T13:43:27;0.88;;;0.40;;
29854;SDS011;16733;48.738;9.106;2023-08-06T13:45:53;1.50;;;0.30;;
29854;SDS011;16733;48.738;9.106;2023-08-06T13:48:19;0.47;;;0.28;;
29854;SDS011;16733;48.738;9.106;2023-08-06T13:50:45;0.30;;;0.28;;
29854;SDS011;16733;48.738;9.106;2023-08-06T13:53:11;1.80;;;0.30;;
29854;SDS011;16733;48.738;9.106;2023-08-06T13:55:37;1.08;;;0.20;;
29854;SDS011;16733;48.738;9.106;2023-08-06T13:58:03;1.05;;;0.30;;
29854;SDS011;16733;48.738;9.106;2023-08-06T14:00:29;0.25;;;0.22;;
29854;SDS011;16733;48.738;9.106;2023-08-06T14:02:55;1.77;;;0.20;;
29854;SDS011;16733;48.738;9.106;2023-08-06T14:05:21;0.45;;;0.40;;
29854;SDS011;16733;48.738;9.106;2023-08-06T14:07:47;0.80;;;0.50;;
29854;SDS011;16733;48.738;9.106;2023-08-06T14:10:13;1.17;;;0.40;;
29854;SDS011;16733;48.738;9.106;2023-08-06T14:12:39;0.47;;;0.38;;
29854;SDS011;16733;48.738;9.106;2023-08-06T14:15:05;3.97;;;1.05;;
29854;SDS011;16733;48.738;9.106;2023-08-06T14:17:31;1.73;;;0.50;;
29854;SDS011;16733;48.738;9.106;2023-08-06T14:19:57;2.15;;;0.82;;
29854;SDS011;16733;48.738;9.106;2023-08-06T14:22:25;1.42;;;0.63;;
29854;SDS011;16733;48.738;9.106;2023-08-06T14:24:51;0.80;;;0.40;;
29854;SDS011;16733;48.738;9.106;2023-08-06T14:27:18;1.10;;;0.57;;
29854;SDS011;16733;48.738;9.106;2023-08-06T14:29:44;0.50;;;0.40;;
29854;SDS011;16733;48.738;9.106;2023-08-06T14:32:10;0.45;;;0.43;;
29854;SDS011;16733;48.738;9.106;2023-08-06T14:34:36;12.05;;;0.88;;
29854;SDS011;16733;48.738;9.106;2023-08-06T14:37:02;1.02;;;0.50;;
29854;SDS011;16733;48.738;9.106;2023-08-06T14:39:28;0.43;;;0.40;;
29854;SDS011;16733;48.738;9.106;2023-08-06T14:41:54;0.60;;;0.38;;
29854;SDS011;16733;48.738;9.106;2023-08-06T14:44:20;0.43;;;0.40;;
29854;SDS011;16733;48.738;9.106;2023-08-06T14:46:46;0.68;;;0.60;;
29854;SDS011;16733;48.738;9.106;2023-08-06T14:49:12;0.55;;;0.38;;
29854;SDS011;16733;48.738;9.106;2023-08-06T14:51:38;0.40;;;0.40;;
29854;SDS011;16733;48.738;9.106;2023-08-06T14:54:04;0.30;;;0.30;;
29854;SDS011;16733;48.738;9.106;2023-08-06T14:56:30;0.45;;;0.40;;